Time;durP1;ratioP1;P1;durP2;ratioP2;P2;SDS_P1;SDS_P2;PMS_P1;PMS_P2;Temp;Humidity;BMP_temperature;BMP_pressure;BME280_temperature;BME280_humidity;BME280_pressure;Samples;Min_cycle;Max_cycle;Signal;HPM_P1;HPM_P2
2022/11/16 00:01:05;;;;;;;9.17;5.97;;;;;;;;;;5053543;28;20498;-61
2022/11/16 00:03:32;;;;;;;7.93;6.07;;;;;;;;;;5053430;28;20479;-61
2022/11/16 00:06:00;;;;;;;6.60;5.90;;;;;;;;;;5052871;28;20515;-62
2022/11/16 00:08:29;;;;;;;6.37;5.77;;;;;;;;;;5052849;28;20484;-60
2022/11/16 00:10:56;;;;;;;7.67;6.87;;;;;;;;;;5052833;28;20958;-61
2022/11/16 00:13:23;;;;;;;9.00;6.43;;;;;;;;;;5052933;28;20821;-62
2022/11/16 00:15:56;;;;;;;7.50;5.93;;;;;;;;;;5052894;28;20480;-62
2022/11/16 00:18:25;;;;;;;9.50;5.90;;;;;;;;;;5053269;28;20451;-61
2022/11/16 00:20:52;;;;;;;7.30;6.03;;;;;;;;;;5052767;28;20935;-62
2022/11/16 00:23:19;;;;;;;10.47;5.93;;;;;;;;;;5052882;28;20559;-60
2022/11/16 00:25:47;;;;;;;8.60;6.97;;;;;;;;;;5053731;28;20846;-61
2022/11/16 00:28:14;;;;;;;6.90;6.20;;;;;;;;;;5057062;28;20451;-61
2022/11/16 00:30:41;;;;;;;8.30;6.10;;;;;;;;;;5056779;28;20981;-61
2022/11/16 00:33:08;;;;;;;7.77;6.23;;;;;;;;;;5057012;28;20444;-61
2022/11/16 00:35:40;;;;;;;9.63;6.07;;;;;;;;;;5056985;28;20487;-62
2022/11/16 00:38:07;;;;;;;7.93;5.80;;;;;;;;;;5057330;28;20935;-62
2022/11/16 00:40:34;;;;;;;7.57;5.90;;;;;;;;;;5057007;28;20440;-61
2022/11/16 00:43:01;;;;;;;8.80;6.20;;;;;;;;;;5057730;28;20450;-61
2022/11/16 00:45:28;;;;;;;9.73;6.47;;;;;;;;;;5056380;28;20982;-62
2022/11/16 00:47:55;;;;;;;8.70;7.10;;;;;;;;;;5056769;28;20443;-61
2022/11/16 00:50:22;;;;;;;9.00;7.53;;;;;;;;;;5056780;28;20444;-61
2022/11/16 00:52:51;;;;;;;7.67;6.87;;;;;;;;;;5056679;28;20812;-60
2022/11/16 00:55:18;;;;;;;9.80;6.43;;;;;;;;;;5056211;28;20566;-59
2022/11/16 00:57:45;;;;;;;10.43;6.97;;;;;;;;;;5057478;28;20816;-61
2022/11/16 01:00:12;;;;;;;8.50;6.90;;;;;;;;;;5056444;28;20444;-59
2022/11/16 01:02:40;;;;;;;8.10;6.47;;;;;;;;;;5056790;28;20562;-60
2022/11/16 01:05:08;;;;;;;7.57;6.40;;;;;;;;;;5056332;28;20440;-61
2022/11/16 01:07:35;;;;;;;13.47;7.70;;;;;;;;;;5056430;28;20505;-61
2022/11/16 01:10:04;;;;;;;8.57;6.30;;;;;;;;;;5056332;28;20446;-61
2022/11/16 01:12:30;;;;;;;8.90;6.20;;;;;;;;;;5056767;28;20454;-60
2022/11/16 01:14:57;;;;;;;9.40;6.30;;;;;;;;;;5058132;28;20480;-60
2022/11/16 01:17:24;;;;;;;8.70;6.50;;;;;;;;;;5058682;28;20835;-61
2022/11/16 01:19:51;;;;;;;7.97;6.00;;;;;;;;;;5057461;28;20466;-61
2022/11/16 01:22:19;;;;;;;6.90;5.73;;;;;;;;;;5057378;28;20940;-60
2022/11/16 01:24:46;;;;;;;6.93;6.23;;;;;;;;;;5057861;28;20454;-60
2022/11/16 01:27:14;;;;;;;6.80;6.00;;;;;;;;;;5056932;28;20489;-60
2022/11/16 01:29:42;;;;;;;8.53;6.20;;;;;;;;;;5057245;28;20950;-60
2022/11/16 01:32:09;;;;;;;7.33;6.30;;;;;;;;;;5056179;28;20936;-60
2022/11/16 01:34:36;;;;;;;5.97;5.33;;;;;;;;;;5055619;28;20495;-60
2022/11/16 01:37:03;;;;;;;12.13;6.87;;;;;;;;;;5054967;28;20785;-60
2022/11/16 01:39:30;;;;;;;7.70;5.83;;;;;;;;;;5055679;28;20451;-60
2022/11/16 01:41:57;;;;;;;11.63;6.67;;;;;;;;;;5055972;28;20445;-60
2022/11/16 01:44:43;;;;;;;9.40;6.27;;;;;;;;;;5056009;28;20440;-60
2022/11/16 01:47:13;;;;;;;7.10;5.20;;;;;;;;;;5055977;28;20464;-61
2022/11/16 01:49:42;;;;;;;8.43;6.17;;;;;;;;;;5055893;28;20451;-59
2022/11/16 01:52:11;;;;;;;9.40;7.03;;;;;;;;;;5055783;28;20440;-60
2022/11/16 01:54:40;;;;;;;7.07;5.70;;;;;;;;;;5055604;28;20475;-60
2022/11/16 01:57:10;;;;;;;8.17;6.20;;;;;;;;;;5055649;28;20466;-61
2022/11/16 01:59:37;;;;;;;10.27;6.10;;;;;;;;;;5055601;28;20447;-61
2022/11/16 02:02:04;;;;;;;7.87;6.70;;;;;;;;;;5055239;28;20444;-61
2022/11/16 02:04:33;;;;;;;8.93;6.60;;;;;;;;;;5055659;28;20443;-62
2022/11/16 02:07:05;;;;;;;8.90;7.20;;;;;;;;;;5055540;28;20464;-61
2022/11/16 02:09:53;;;;;;;9.93;6.90;;;;;;;;;;5055731;28;20527;-61
2022/11/16 02:12:50;;;;;;;7.73;6.70;;;;;;;;;;5055574;28;20427;-61
2022/11/16 02:15:21;;;;;;;9.73;6.53;;;;;;;;;;5013279;28;20487;-61
2022/11/16 02:17:52;;;;;;;9.17;7.47;;;;;;;;;;5046745;28;20820;-59
2022/11/16 02:20:49;;;;;;;8.00;6.83;;;;;;;;;;5055209;28;20428;-61
2022/11/16 02:23:37;;;;;;;7.93;6.93;;;;;;;;;;5013781;28;20525;-61
2022/11/16 02:26:15;;;;;;;11.13;7.13;;;;;;;;;;5051018;28;20460;-61
2022/11/16 02:28:47;;;;;;;8.10;7.00;;;;;;;;;;5055017;28;20428;-60
2022/11/16 02:31:18;;;;;;;9.53;7.67;;;;;;;;;;5055220;28;20431;-60
2022/11/16 02:33:47;;;;;;;8.70;7.23;;;;;;;;;;5054957;28;20482;-61
2022/11/16 02:36:16;;;;;;;10.80;6.93;;;;;;;;;;5056357;28;20495;-60
2022/11/16 02:38:46;;;;;;;10.13;7.27;;;;;;;;;;5055222;28;20796;-60
2022/11/16 02:41:16;;;;;;;9.83;7.90;;;;;;;;;;5055203;28;20424;-62
2022/11/16 02:43:45;;;;;;;9.77;8.30;;;;;;;;;;5055030;28;20448;-61
2022/11/16 02:46:17;;;;;;;10.30;7.70;;;;;;;;;;5054880;28;20497;-60
2022/11/16 02:48:49;;;;;;;9.00;7.70;;;;;;;;;;5054219;28;20555;-60
2022/11/16 02:51:16;;;;;;;9.52;7.78;;;;;;;;;;5054321;28;20436;-61
2022/11/16 02:53:51;;;;;;;11.17;8.40;;;;;;;;;;5054521;28;20208;-61
2022/11/16 02:56:19;;;;;;;10.18;7.90;;;;;;;;;;5054586;28;20483;-60
2022/11/16 02:58:47;;;;;;;10.83;8.27;;;;;;;;;;5054358;28;20208;-61
2022/11/16 03:01:16;;;;;;;12.90;8.90;;;;;;;;;;5054031;28;20932;-61
2022/11/16 03:03:49;;;;;;;13.47;7.60;;;;;;;;;;5054442;28;20577;-61
2022/11/16 03:06:19;;;;;;;11.88;8.88;;;;;;;;;;5054424;28;20467;-59
2022/11/16 03:08:49;;;;;;;10.50;8.23;;;;;;;;;;5054009;28;20206;-62
2022/11/16 03:14:15;;;;;;;11.10;8.03;;;;;;;;;;5013066;28;20195;-60
2022/11/16 03:16:44;;;;;;;10.13;8.63;;;;;;;;;;5044662;28;20495;-60
2022/11/16 03:19:14;;;;;;;12.10;9.93;;;;;;;;;;5054047;28;20451;-60
2022/11/16 03:21:44;;;;;;;11.13;8.50;;;;;;;;;;5054513;28;20213;-60
2022/11/16 03:24:11;;;;;;;11.07;8.40;;;;;;;;;;5053900;28;20435;-62
2022/11/16 03:26:43;;;;;;;10.73;8.50;;;;;;;;;;5053182;28;20497;-61
2022/11/16 03:29:14;;;;;;;11.27;8.13;;;;;;;;;;5053846;28;20782;-62
2022/11/16 03:31:46;;;;;;;13.17;9.13;;;;;;;;;;5053653;28;20428;-62
2022/11/16 03:34:17;;;;;;;10.50;8.82;;;;;;;;;;5053211;28;20430;-61
2022/11/16 03:36:45;;;;;;;15.37;9.30;;;;;;;;;;5053464;28;20221;-61
2022/11/16 03:39:14;;;;;;;11.03;9.53;;;;;;;;;;5053293;28;20940;-61
2022/11/16 03:41:42;;;;;;;14.13;9.68;;;;;;;;;;5053486;28;20451;-61
2022/11/16 03:44:11;;;;;;;11.88;9.40;;;;;;;;;;5053591;28;20207;-61
2022/11/16 03:46:38;;;;;;;11.33;9.60;;;;;;;;;;5053115;28;20251;-61
2022/11/16 03:49:06;;;;;;;12.05;9.07;;;;;;;;;;5053419;28;20440;-62
2022/11/16 03:51:35;;;;;;;13.30;9.50;;;;;;;;;;5053259;28;20235;-61
2022/11/16 03:54:02;;;;;;;14.50;10.68;;;;;;;;;;5053898;28;20208;-62
2022/11/16 03:56:29;;;;;;;14.43;10.00;;;;;;;;;;5053004;28;20230;-61
2022/11/16 03:58:57;;;;;;;12.27;10.70;;;;;;;;;;5052843;28;20581;-60
2022/11/16 04:01:24;;;;;;;13.50;11.10;;;;;;;;;;5052854;28;20466;-62
2022/11/16 04:03:51;;;;;;;14.57;10.88;;;;;;;;;;5053117;28;20523;-61
2022/11/16 04:24:12;;;;;;;15.65;12.18;;;;;;;;;;5040617;28;20219;-62
2022/11/16 04:29:26;;;;;;;15.32;12.23;;;;;;;;;;5041823;28;20229;-62
2022/11/16 04:40:16;;;;;;;17.15;13.10;;;;;;;;;;5006604;28;20230;-61
2022/11/16 04:42:50;;;;;;;15.82;12.20;;;;;;;;;;5039972;28;20780;-61
2022/11/16 04:48:02;;;;;;;18.25;12.50;;;;;;;;;;5037677;28;20186;-61
2022/11/16 04:50:30;;;;;;;16.77;13.13;;;;;;;;;;5037559;28;20227;-61
2022/11/16 04:52:57;;;;;;;20.25;13.18;;;;;;;;;;5036707;28;20305;-61
2022/11/16 04:55:25;;;;;;;18.75;14.43;;;;;;;;;;5038004;28;20198;-61
2022/11/16 04:57:54;;;;;;;19.08;14.45;;;;;;;;;;5040031;28;20203;-61
2022/11/16 05:00:21;;;;;;;18.33;14.50;;;;;;;;;;5040789;28;20198;-60
2022/11/16 05:02:48;;;;;;;18.83;14.90;;;;;;;;;;5040674;28;20222;-60
2022/11/16 05:05:15;;;;;;;19.33;14.45;;;;;;;;;;5040585;28;20262;-60
2022/11/16 05:07:42;;;;;;;20.17;14.90;;;;;;;;;;5040708;28;20270;-60
2022/11/16 05:10:10;;;;;;;20.83;13.70;;;;;;;;;;5040825;28;20301;-60
2022/11/16 05:12:37;;;;;;;18.10;13.90;;;;;;;;;;5040339;28;20215;-60
2022/11/16 05:15:07;;;;;;;21.73;14.93;;;;;;;;;;5039264;28;20290;-60
2022/11/16 05:17:34;;;;;;;24.52;15.95;;;;;;;;;;5039668;28;20290;-60
2022/11/16 05:22:52;;;;;;;18.58;15.00;;;;;;;;;;5030254;28;20245;-60
2022/11/16 05:25:19;;;;;;;21.23;16.60;;;;;;;;;;5020998;28;20283;-58
2022/11/16 05:27:46;;;;;;;21.30;14.75;;;;;;;;;;5015509;28;20197;-58
2022/11/16 05:30:15;;;;;;;18.70;14.73;;;;;;;;;;5015714;28;20226;-59
2022/11/16 05:32:42;;;;;;;22.88;15.70;;;;;;;;;;5000580;28;20219;-57
2022/11/16 05:35:09;;;;;;;20.15;15.93;;;;;;;;;;5016148;28;20714;-59
2022/11/16 05:37:36;;;;;;;20.08;15.63;;;;;;;;;;5015810;28;20209;-58
2022/11/16 05:40:04;;;;;;;23.60;16.83;;;;;;;;;;5016096;28;20195;-59
2022/11/16 05:42:31;;;;;;;28.33;17.08;;;;;;;;;;5015737;28;20222;-57
2022/11/16 05:44:58;;;;;;;20.67;15.30;;;;;;;;;;5015805;28;20198;-58
2022/11/16 05:47:27;;;;;;;22.25;15.40;;;;;;;;;;5015718;28;20675;-58
2022/11/16 05:49:54;;;;;;;24.20;16.10;;;;;;;;;;5015827;28;20710;-59
2022/11/16 05:52:21;;;;;;;23.90;17.20;;;;;;;;;;5016665;28;20225;-59
2022/11/16 05:54:48;;;;;;;23.92;17.23;;;;;;;;;;5015778;28;20691;-58
2022/11/16 05:57:16;;;;;;;23.00;17.13;;;;;;;;;;5017375;28;20209;-58
2022/11/16 05:59:43;;;;;;;26.23;17.88;;;;;;;;;;5017615;28;20203;-58
2022/11/16 06:02:10;;;;;;;23.27;17.50;;;;;;;;;;5018750;28;20223;-59
2022/11/16 06:04:39;;;;;;;24.55;18.00;;;;;;;;;;5017730;28;20203;-59
2022/11/16 06:07:06;;;;;;;22.10;17.42;;;;;;;;;;5020143;28;20199;-58
2022/11/16 06:09:33;;;;;;;24.08;16.88;;;;;;;;;;5018490;28;20269;-59
2022/11/16 06:12:00;;;;;;;24.42;18.08;;;;;;;;;;5018848;28;20231;-60
2022/11/16 06:14:27;;;;;;;25.45;19.67;;;;;;;;;;5016329;28;20199;-60
2022/11/16 06:16:54;;;;;;;23.17;18.33;;;;;;;;;;5016585;28;20523;-59
2022/11/16 06:19:22;;;;;;;25.00;18.60;;;;;;;;;;5017931;28;20199;-60
2022/11/16 06:21:50;;;;;;;30.83;17.90;;;;;;;;;;5016906;28;20286;-59
2022/11/16 06:24:17;;;;;;;29.50;19.33;;;;;;;;;;5017689;28;20191;-59
2022/11/16 06:26:45;;;;;;;29.40;19.38;;;;;;;;;;5020711;28;20203;-58
2022/11/16 06:29:13;;;;;;;29.10;19.98;;;;;;;;;;5014634;28;20281;-59
2022/11/16 06:31:40;;;;;;;24.88;17.77;;;;;;;;;;5014349;28;20199;-59
2022/11/16 06:34:07;;;;;;;31.63;21.05;;;;;;;;;;5014028;28;20191;-58
2022/11/16 06:36:34;;;;;;;24.42;20.13;;;;;;;;;;5015258;28;20226;-59
2022/11/16 06:39:02;;;;;;;30.17;19.65;;;;;;;;;;5015045;28;20199;-59
2022/11/16 06:41:30;;;;;;;28.88;19.58;;;;;;;;;;5014869;28;20750;-59
2022/11/16 06:43:58;;;;;;;29.63;19.65;;;;;;;;;;5016109;28;20225;-59
2022/11/16 06:46:25;;;;;;;34.97;21.25;;;;;;;;;;5014995;28;20213;-59
2022/11/16 06:48:52;;;;;;;29.48;19.77;;;;;;;;;;5014839;28;20195;-59
2022/11/16 06:51:19;;;;;;;28.27;18.63;;;;;;;;;;5015606;28;20209;-59
2022/11/16 06:53:46;;;;;;;31.05;20.58;;;;;;;;;;5015247;28;20750;-63
2022/11/16 06:56:16;;;;;;;27.92;19.08;;;;;;;;;;5014027;28;20663;-57
2022/11/16 06:58:43;;;;;;;31.08;20.15;;;;;;;;;;5013724;28;20203;-61
2022/11/16 07:01:11;;;;;;;35.45;20.83;;;;;;;;;;5015592;28;20195;-59
2022/11/16 07:03:38;;;;;;;33.15;21.50;;;;;;;;;;5015444;28;20229;-59
2022/11/16 07:06:06;;;;;;;29.35;20.02;;;;;;;;;;5016007;28;20257;-59
2022/11/16 07:08:34;;;;;;;29.48;21.40;;;;;;;;;;5015560;28;20290;-58
2022/11/16 07:11:03;;;;;;;30.83;21.90;;;;;;;;;;5014603;28;20229;-59
2022/11/16 07:13:32;;;;;;;30.42;21.88;;;;;;;;;;5014096;28;20223;-59
2022/11/16 07:16:03;;;;;;;32.35;22.10;;;;;;;;;;5014445;28;20210;-59
2022/11/16 07:18:32;;;;;;;33.85;20.10;;;;;;;;;;5014119;28;20577;-59
2022/11/16 07:20:59;;;;;;;28.48;21.42;;;;;;;;;;5015006;28;20261;-60
2022/11/16 07:23:27;;;;;;;35.03;23.10;;;;;;;;;;5014420;28;20593;-60
2022/11/16 07:25:54;;;;;;;32.40;21.65;;;;;;;;;;5013341;28;20198;-59
2022/11/16 07:28:21;;;;;;;32.15;22.67;;;;;;;;;;5013137;28;20551;-59
2022/11/16 07:30:50;;;;;;;35.05;23.55;;;;;;;;;;5012531;28;20219;-59
2022/11/16 07:33:17;;;;;;;34.17;22.80;;;;;;;;;;5013304;28;20219;-60
2022/11/16 07:35:44;;;;;;;35.50;22.20;;;;;;;;;;5014422;28;20198;-60
2022/11/16 07:38:11;;;;;;;35.50;23.50;;;;;;;;;;5014227;28;20209;-59
2022/11/16 07:40:38;;;;;;;36.60;22.67;;;;;;;;;;5013888;28;20561;-58
2022/11/16 07:43:05;;;;;;;35.22;22.83;;;;;;;;;;5014044;28;20227;-58
2022/11/16 07:45:33;;;;;;;34.47;23.00;;;;;;;;;;5014284;28;20290;-59
2022/11/16 07:48:01;;;;;;;34.13;23.30;;;;;;;;;;5014646;28;20210;-58
2022/11/16 07:50:28;;;;;;;39.20;24.60;;;;;;;;;;5019191;28;20223;-60
2022/11/16 07:52:56;;;;;;;36.13;25.70;;;;;;;;;;5016184;28;20551;-57
2022/11/16 07:55:25;;;;;;;36.25;24.27;;;;;;;;;;5015125;28;20223;-59
2022/11/16 07:57:52;;;;;;;36.15;26.40;;;;;;;;;;5014943;28;20202;-61
2022/11/16 08:00:19;;;;;;;39.10;24.20;;;;;;;;;;5014061;28;20663;-61
2022/11/16 08:02:46;;;;;;;38.47;23.95;;;;;;;;;;5015226;28;20233;-64
2022/11/16 08:05:15;;;;;;;37.20;23.30;;;;;;;;;;5014799;28;20533;-61
2022/11/16 08:07:42;;;;;;;34.95;24.38;;;;;;;;;;5016911;28;20199;-61
2022/11/16 08:10:09;;;;;;;42.72;25.58;;;;;;;;;;5016918;28;20221;-63
2022/11/16 08:12:36;;;;;;;39.00;23.98;;;;;;;;;;5018530;28;20219;-63
2022/11/16 08:15:04;;;;;;;39.75;23.88;;;;;;;;;;5019038;28;20207;-63
2022/11/16 08:17:31;;;;;;;35.10;22.30;;;;;;;;;;5016264;28;20195;-63
2022/11/16 08:19:58;;;;;;;29.98;22.73;;;;;;;;;;5015452;28;20206;-61
2022/11/16 08:22:26;;;;;;;33.58;23.15;;;;;;;;;;5015451;28;20237;-62
2022/11/16 08:24:54;;;;;;;40.75;25.50;;;;;;;;;;5014862;28;20210;-62
2022/11/16 08:27:22;;;;;;;32.92;22.42;;;;;;;;;;5017072;28;20238;-62
2022/11/16 08:29:49;;;;;;;35.88;21.95;;;;;;;;;;5015485;28;20219;-62
2022/11/16 08:32:16;;;;;;;35.80;22.58;;;;;;;;;;5014811;28;20310;-63
2022/11/16 08:34:44;;;;;;;34.00;24.40;;;;;;;;;;5016425;28;20667;-63
2022/11/16 08:37:11;;;;;;;26.75;20.30;;;;;;;;;;5014797;28;20214;-65
2022/11/16 08:39:39;;;;;;;31.90;21.40;;;;;;;;;;5019173;28;20195;-61
2022/11/16 08:42:06;;;;;;;30.95;21.42;;;;;;;;;;5016902;28;20223;-63
2022/11/16 08:44:33;;;;;;;32.95;21.17;;;;;;;;;;5017442;28;20222;-61
2022/11/16 08:47:00;;;;;;;31.15;22.90;;;;;;;;;;5017112;28;20609;-65
2022/11/16 08:49:28;;;;;;;29.50;21.50;;;;;;;;;;5014089;28;20213;-65
2022/11/16 08:51:58;;;;;;;37.95;24.35;;;;;;;;;;5014103;28;20223;-65
2022/11/16 08:54:25;;;;;;;32.15;21.70;;;;;;;;;;5013221;28;20234;-66
2022/11/16 08:56:54;;;;;;;34.45;23.55;;;;;;;;;;5016769;28;20191;-62
2022/11/16 08:59:21;;;;;;;33.50;22.70;;;;;;;;;;5018299;28;20207;-65
2022/11/16 09:01:48;;;;;;;30.15;20.80;;;;;;;;;;5017360;28;20574;-65
2022/11/16 09:04:17;;;;;;;35.05;23.98;;;;;;;;;;5017645;28;20257;-63
2022/11/16 09:06:44;;;;;;;32.83;22.60;;;;;;;;;;5018346;28;20207;-64
2022/11/16 09:09:12;;;;;;;35.60;22.60;;;;;;;;;;5018487;28;20214;-64
2022/11/16 09:11:39;;;;;;;33.03;23.38;;;;;;;;;;5020111;28;20668;-65
2022/11/16 09:14:07;;;;;;;32.70;22.90;;;;;;;;;;5018207;28;20210;-62
2022/11/16 09:16:34;;;;;;;32.13;22.10;;;;;;;;;;5021070;28;20667;-63
2022/11/16 09:19:01;;;;;;;32.13;23.65;;;;;;;;;;5017192;28;20245;-64
2022/11/16 09:21:29;;;;;;;29.20;21.30;;;;;;;;;;5019271;28;20199;-62
2022/11/16 09:23:57;;;;;;;30.40;21.83;;;;;;;;;;5019416;28;20219;-64
2022/11/16 09:26:25;;;;;;;35.35;21.35;;;;;;;;;;5018950;28;20203;-62
2022/11/16 09:28:55;;;;;;;28.77;21.85;;;;;;;;;;5018659;28;20276;-62
2022/11/16 09:31:26;;;;;;;33.88;23.85;;;;;;;;;;5020136;28;20565;-63
2022/11/16 09:33:53;;;;;;;33.50;23.13;;;;;;;;;;5018533;28;20258;-61
2022/11/16 09:36:20;;;;;;;33.95;22.90;;;;;;;;;;5018852;28;20203;-62
2022/11/16 09:38:48;;;;;;;30.30;22.35;;;;;;;;;;5019221;28;20207;-62
2022/11/16 09:41:22;;;;;;;30.65;23.38;;;;;;;;;;5021068;28;20209;-63
2022/11/16 09:44:20;;;;;;;32.75;23.38;;;;;;;;;;5018521;28;20672;-62
2022/11/16 09:46:50;;;;;;;29.35;22.05;;;;;;;;;;5018245;28;20211;-62
2022/11/16 09:49:19;;;;;;;31.38;22.40;;;;;;;;;;5017067;28;20195;-62
2022/11/16 09:51:48;;;;;;;29.23;21.70;;;;;;;;;;5017457;28;20223;-63
2022/11/16 09:54:17;;;;;;;34.00;22.10;;;;;;;;;;5017240;28;20202;-61
2022/11/16 09:56:46;;;;;;;31.73;25.10;;;;;;;;;;5017725;28;20199;-61
2022/11/16 09:59:18;;;;;;;29.30;22.58;;;;;;;;;;5019241;28;20564;-60
2022/11/16 10:01:47;;;;;;;28.58;23.00;;;;;;;;;;5018203;28;20183;-60
2022/11/16 10:04:18;;;;;;;33.00;24.20;;;;;;;;;;5016448;28;20209;-60
2022/11/16 10:06:48;;;;;;;35.22;23.60;;;;;;;;;;5016185;28;20561;-60
2022/11/16 10:09:16;;;;;;;36.65;25.77;;;;;;;;;;5016364;28;20203;-62
2022/11/16 10:11:47;;;;;;;35.20;23.77;;;;;;;;;;5015730;28;20223;-62
2022/11/16 10:14:38;;;;;;;35.78;24.90;;;;;;;;;;5015865;28;20187;-62
2022/11/16 10:17:09;;;;;;;34.85;23.77;;;;;;;;;;4996233;28;20199;-61
2022/11/16 10:19:44;;;;;;;32.55;23.52;;;;;;;;;;5016144;28;20195;-60
2022/11/16 10:22:20;;;;;;;32.80;23.83;;;;;;;;;;5043613;22;20230;-64
2022/11/16 10:24:53;;;;;;;30.77;22.95;;;;;;;;;;5054978;28;20544;-63
2022/11/16 10:27:28;;;;;;;38.70;25.00;;;;;;;;;;5055173;28;20196;-63
2022/11/16 10:29:59;;;;;;;30.65;23.50;;;;;;;;;;5055102;28;20186;-63
2022/11/16 10:32:29;;;;;;;39.78;26.42;;;;;;;;;;5050353;28;20226;-66
2022/11/16 10:35:01;;;;;;;35.55;24.40;;;;;;;;;;5034700;28;20210;-66
2022/11/16 10:37:30;;;;;;;34.95;25.50;;;;;;;;;;5034437;28;20643;-64
2022/11/16 10:39:57;;;;;;;40.28;24.35;;;;;;;;;;5034222;28;20210;-63
2022/11/16 10:42:28;;;;;;;32.38;25.35;;;;;;;;;;5034730;28;20226;-67
2022/11/16 10:44:58;;;;;;;34.78;23.25;;;;;;;;;;5034690;28;20548;-65
2022/11/16 10:47:28;;;;;;;29.10;22.88;;;;;;;;;;5034816;28;20765;-65
2022/11/16 10:49:59;;;;;;;35.85;25.23;;;;;;;;;;5034450;28;20202;-64
2022/11/16 10:52:26;;;;;;;32.75;23.92;;;;;;;;;;5035126;28;20232;-63
2022/11/16 10:54:53;;;;;;;31.83;23.60;;;;;;;;;;5035087;28;20585;-62
2022/11/16 10:57:22;;;;;;;36.65;22.88;;;;;;;;;;5034121;28;20293;-64
2022/11/16 10:59:52;;;;;;;34.92;24.25;;;;;;;;;;5034224;28;20208;-64
2022/11/16 11:02:30;;;;;;;33.80;23.92;;;;;;;;;;5033722;28;20226;-64
2022/11/16 11:05:19;;;;;;;34.10;23.02;;;;;;;;;;5034931;28;20678;-64
2022/11/16 11:07:49;;;;;;;33.05;22.70;;;;;;;;;;5034351;28;20236;-63
2022/11/16 11:10:28;;;;;;;29.00;21.83;;;;;;;;;;5033972;28;20277;-64
2022/11/16 11:13:03;;;;;;;33.05;22.40;;;;;;;;;;5034109;28;20222;-64
2022/11/16 11:15:30;;;;;;;33.28;22.77;;;;;;;;;;5034046;28;20201;-62
2022/11/16 11:18:10;;;;;;;32.85;23.02;;;;;;;;;;5033801;28;20202;-64
2022/11/16 11:20:40;;;;;;;33.15;22.27;;;;;;;;;;5034188;28;20193;-64
2022/11/16 11:23:13;;;;;;;30.88;21.60;;;;;;;;;;5042527;28;20717;-63
2022/11/16 11:25:42;;;;;;;31.33;21.45;;;;;;;;;;5053129;28;20191;-65
2022/11/16 11:28:17;;;;;;;30.15;21.00;;;;;;;;;;5053283;28;20673;-64
2022/11/16 11:30:52;;;;;;;29.67;22.65;;;;;;;;;;5053750;28;20209;-66
2022/11/16 11:33:20;;;;;;;29.02;20.88;;;;;;;;;;5053619;28;20228;-63
2022/11/16 11:35:56;;;;;;;27.55;19.73;;;;;;;;;;5054209;28;20300;-63
2022/11/16 11:38:23;;;;;;;26.85;20.65;;;;;;;;;;5054058;28;20200;-64
2022/11/16 11:40:57;;;;;;;24.02;18.33;;;;;;;;;;5053746;28;20201;-64
2022/11/16 11:43:24;;;;;;;28.52;19.33;;;;;;;;;;5053908;28;20217;-63
2022/11/16 11:45:54;;;;;;;27.90;19.65;;;;;;;;;;5053827;28;20618;-64
2022/11/16 11:48:25;;;;;;;29.17;20.00;;;;;;;;;;5053550;28;20212;-64
2022/11/16 11:50:55;;;;;;;25.45;19.27;;;;;;;;;;5053547;28;20212;-62
2022/11/16 11:53:34;;;;;;;28.02;19.98;;;;;;;;;;5053475;28;20222;-66
2022/11/16 11:56:01;;;;;;;30.25;19.35;;;;;;;;;;5053228;28;20190;-65
2022/11/16 11:58:30;;;;;;;25.55;17.88;;;;;;;;;;5053818;28;20209;-64
2022/11/16 12:01:06;;;;;;;26.20;18.77;;;;;;;;;;5054212;28;20209;-67
2022/11/16 12:03:41;;;;;;;28.85;19.02;;;;;;;;;;5054038;28;20568;-65
2022/11/16 12:06:16;;;;;;;28.73;18.88;;;;;;;;;;5053312;28;20193;-63
2022/11/16 12:08:51;;;;;;;27.42;17.83;;;;;;;;;;5052961;28;20557;-63
2022/11/16 12:11:22;;;;;;;25.88;17.67;;;;;;;;;;5053959;28;20217;-64
2022/11/16 12:13:57;;;;;;;25.75;19.33;;;;;;;;;;5052847;28;20285;-64
2022/11/16 12:16:27;;;;;;;25.65;16.83;;;;;;;;;;5053301;28;20239;-64
2022/11/16 12:19:13;;;;;;;24.17;18.08;;;;;;;;;;5052788;28;20627;-63
2022/11/16 12:21:48;;;;;;;22.50;18.48;;;;;;;;;;5052813;28;20200;-64
2022/11/16 12:24:30;;;;;;;25.70;16.92;;;;;;;;;;5053227;28;20229;-64
2022/11/16 12:27:02;;;;;;;21.58;17.50;;;;;;;;;;5042690;28;20205;-63
2022/11/16 12:29:33;;;;;;;23.45;16.38;;;;;;;;;;5056134;28;20182;-64
2022/11/16 12:32:17;;;;;;;23.40;15.85;;;;;;;;;;5058674;28;20216;-64
2022/11/16 12:34:52;;;;;;;24.60;16.55;;;;;;;;;;5060881;28;20181;-61
2022/11/16 12:37:24;;;;;;;30.75;18.20;;;;;;;;;;5059217;28;20185;-64
2022/11/16 12:39:57;;;;;;;23.13;17.42;;;;;;;;;;5060420;28;20198;-63
2022/11/16 12:42:36;;;;;;;22.55;16.50;;;;;;;;;;5059856;28;20216;-63
2022/11/16 12:45:17;;;;;;;25.25;16.60;;;;;;;;;;5058185;28;20554;-66
2022/11/16 12:47:52;;;;;;;22.52;16.23;;;;;;;;;;5059446;28;20197;-65
2022/11/16 12:50:26;;;;;;;23.00;15.98;;;;;;;;;;5059243;28;20556;-64
2022/11/16 12:53:00;;;;;;;22.95;15.50;;;;;;;;;;5059745;28;20569;-65
2022/11/16 12:55:29;;;;;;;21.10;14.85;;;;;;;;;;5058188;28;20280;-61
2022/11/16 12:58:06;;;;;;;19.88;14.57;;;;;;;;;;5058311;28;20206;-64
2022/11/16 13:00:39;;;;;;;20.98;14.80;;;;;;;;;;5058265;28;20656;-64
2022/11/16 13:03:15;;;;;;;20.40;14.98;;;;;;;;;;5058863;28;20228;-66
2022/11/16 13:05:54;;;;;;;19.65;13.88;;;;;;;;;;5038698;28;20286;-66
2022/11/16 13:08:32;;;;;;;23.85;16.27;;;;;;;;;;5041219;28;20192;-64
2022/11/16 13:11:02;;;;;;;20.90;15.10;;;;;;;;;;5056946;28;20210;-64
2022/11/16 13:13:30;;;;;;;24.25;15.40;;;;;;;;;;5056235;28;20222;-63
2022/11/16 13:15:58;;;;;;;23.17;15.13;;;;;;;;;;5056282;28;20693;-65
2022/11/16 13:18:26;;;;;;;17.95;13.80;;;;;;;;;;5056637;28;20194;-64
2022/11/16 13:20:56;;;;;;;21.15;14.20;;;;;;;;;;5056258;28;20201;-64
2022/11/16 13:23:27;;;;;;;22.75;14.88;;;;;;;;;;5057020;28;20229;-66
2022/11/16 13:26:01;;;;;;;21.95;15.98;;;;;;;;;;5057353;28;20190;-63
2022/11/16 13:28:30;;;;;;;19.00;14.15;;;;;;;;;;5056665;28;20200;-64
2022/11/16 13:31:01;;;;;;;22.02;16.10;;;;;;;;;;5056203;28;20680;-64
2022/11/16 13:33:33;;;;;;;21.20;15.13;;;;;;;;;;5055808;28;20225;-65
2022/11/16 13:36:01;;;;;;;25.00;15.90;;;;;;;;;;5055904;28;20190;-64
2022/11/16 13:38:47;;;;;;;22.65;15.80;;;;;;;;;;5055911;28;20202;-63
2022/11/16 13:41:32;;;;;;;20.85;16.20;;;;;;;;;;5055575;28;20193;-64
2022/11/16 13:43:59;;;;;;;23.20;15.73;;;;;;;;;;5055196;28;20228;-64
2022/11/16 13:46:37;;;;;;;20.77;15.98;;;;;;;;;;5055182;28;20202;-64
2022/11/16 13:49:05;;;;;;;23.05;15.65;;;;;;;;;;5055545;28;20207;-65
2022/11/16 13:51:32;;;;;;;25.83;15.73;;;;;;;;;;5055178;28;20221;-65
2022/11/16 13:53:59;;;;;;;24.83;16.77;;;;;;;;;;5055318;28;20228;-63
2022/11/16 13:56:26;;;;;;;22.95;16.55;;;;;;;;;;5055700;28;20197;-65
2022/11/16 13:58:55;;;;;;;26.60;17.17;;;;;;;;;;5055828;28;20198;-65
2022/11/16 14:01:22;;;;;;;22.55;15.93;;;;;;;;;;5055878;28;20202;-64
2022/11/16 14:03:50;;;;;;;20.48;14.63;;;;;;;;;;5056155;28;20267;-64
2022/11/16 14:06:36;;;;;;;22.95;16.02;;;;;;;;;;5056198;28;20204;-64
2022/11/16 14:09:03;;;;;;;22.42;17.13;;;;;;;;;;5055316;28;20209;-65
2022/11/16 14:11:31;;;;;;;23.80;18.40;;;;;;;;;;5055536;28;20218;-66
2022/11/16 14:14:01;;;;;;;23.85;17.50;;;;;;;;;;5055675;28;20228;-63
2022/11/16 14:16:43;;;;;;;24.95;17.88;;;;;;;;;;5055845;28;20676;-68
2022/11/16 14:19:25;;;;;;;25.08;18.33;;;;;;;;;;5054045;28;20293;-66
2022/11/16 14:21:54;;;;;;;25.52;18.02;;;;;;;;;;5058586;28;20194;-63
2022/11/16 14:24:27;;;;;;;22.70;17.58;;;;;;;;;;5056564;28;20265;-64
2022/11/16 14:27:02;;;;;;;24.85;18.52;;;;;;;;;;5056008;28;20553;-67
2022/11/16 14:29:37;;;;;;;26.30;18.13;;;;;;;;;;5055462;28;20193;-67
2022/11/16 14:32:05;;;;;;;30.23;18.90;;;;;;;;;;5055505;28;20209;-68
2022/11/16 14:34:40;;;;;;;22.95;18.98;;;;;;;;;;5060355;28;20602;-69
2022/11/16 14:37:12;;;;;;;26.17;17.83;;;;;;;;;;5058990;28;20189;-66
2022/11/16 14:39:41;;;;;;;23.90;17.17;;;;;;;;;;5057329;28;20190;-65
2022/11/16 14:42:17;;;;;;;27.20;20.25;;;;;;;;;;5056395;28;20533;-65
2022/11/16 14:44:45;;;;;;;34.78;24.50;;;;;;;;;;5055545;28;20181;-66
2022/11/16 14:47:21;;;;;;;34.53;22.00;;;;;;;;;;5054748;28;20576;-67
2022/11/16 14:49:48;;;;;;;35.13;23.77;;;;;;;;;;5054432;28;20211;-64
2022/11/16 14:52:16;;;;;;;28.80;18.15;;;;;;;;;;5053864;28;20221;-65
2022/11/16 14:54:52;;;;;;;22.90;16.48;;;;;;;;;;5053664;28;20601;-66
2022/11/16 14:57:20;;;;;;;24.13;17.30;;;;;;;;;;5054917;28;20185;-65
2022/11/16 14:59:49;;;;;;;24.63;17.05;;;;;;;;;;5055058;28;20205;-66
2022/11/16 15:02:18;;;;;;;21.27;15.85;;;;;;;;;;5054574;28;20260;-66
2022/11/16 15:04:45;;;;;;;22.20;15.98;;;;;;;;;;5054570;28;20209;-64
2022/11/16 15:07:13;;;;;;;22.90;16.13;;;;;;;;;;5054005;28;20212;-66
2022/11/16 15:09:41;;;;;;;22.27;16.05;;;;;;;;;;5054020;28;20205;-67
2022/11/16 15:15:02;;;;;;;23.75;16.75;;;;;;;;;;5053720;28;20177;-68
2022/11/16 15:17:29;;;;;;;22.55;15.45;;;;;;;;;;5053953;28;20197;-66
2022/11/16 15:19:56;;;;;;;21.48;15.93;;;;;;;;;;5054086;28;20228;-65